Pagina principale
METAR-TAF:

METAR-TAF

Aeroporti :

Aeroporto di Tirana

Tirana, Albania

latitudine: 41-20N, longitudine: 019-47E, altezza: 89 m

Osservazione

Il bollettino è stato emesso 17 minuti fa, alle 19:20 UTC
Vento 2 kt da direzioni variabili
Temperature 21°C
Umidità 64%
Pressione 1014 hPa
Visibilità 10 km o più
nessuna nube inferiore a 1500 m e nessun cumulonembo

METAR: LATI 231920Z VRB02KT CAVOK 21/14 Q1014 NOSIG

Ora: 21:37 (19:37 UTC)

Previsione

Il bollettino è stato emesso 2 ore e 37 minuti fa, alle 17:00 UTC
Previsione valida dal 23 alle 18 UTC al 24 alle 18 UTC
Vento 5 kt da direzioni variabili
Visibilità 10 km o più
nessuna nube inferiore a 1500 m e nessun cumulonembo
Temporaneamente
dal 24 alle 10 UTC al 24 alle 18 UTC
Vento 10 kt da nord-ovest
Poco nuvoloso ad un'altezza di 4000 ft
Nubi sparse ad un'altezza di 10000 ft

TAF: LATI 231700Z 2318/2418 VRB05KT CAVOK TEMPO 2410/2418 32010KT FEW040 SCT100

Osservazioni e previsioni meteorologiche di più di 4000 aeroporti (messaggi METAR e TAF).

Le stazioni disponibili sono rappresentate dai dischi gialli e rossi sulla carta.

Puntare il mouse per vedere il nome della stazione.

Clicca sopra per visualizzare le osservazioni e previsioni meteorologiche.

Per cambiare la mappa : fare clic sui pulsanti verdi con una croce nera per ingrandire, il pulsante verde con un trattino per diminuire, o sulla freccia verde per le mappe adiacenti.


METAR-TAF: